Time;durP1;ratioP1;P1;durP2;ratioP2;P2;SDS_P1;SDS_P2;PMS_P1;PMS_P2;Temp;Humidity;BMP_temperature;BMP_pressure;BME280_temperature;BME280_humidity;BME280_pressure;Samples;Min_cycle;Max_cycle;Signal;HPM_P1;HPM_P2
2022/01/21 00:01:38;;;;;;;21.67;7.43;;;;;;;-0.90;75.17;96879.63;5086873;28;20059;-59
2022/01/21 00:04:06;;;;;;;19.40;6.88;;;;;;;-0.91;75.10;96883.41;5087243;28;20148;-62
2022/01/21 00:06:33;;;;;;;16.95;6.30;;;;;;;-0.96;75.15;96878.06;5086758;28;20590;-59
2022/01/21 00:09:00;;;;;;;30.70;10.05;;;;;;;-0.90;75.35;96894.00;5085234;28;20064;-62
2022/01/21 00:11:30;;;;;;;51.55;15.07;;;;;;;-0.99;75.94;96862.38;5086894;28;20054;-63
2022/01/21 00:13:58;;;;;;;17.05;7.13;;;;;;;-0.71;75.58;96869.44;5086624;28;20056;-64
2022/01/21 00:16:26;;;;;;;15.80;6.15;;;;;;;-0.82;75.32;96860.66;5086615;28;20138;-60
2022/01/21 00:19:03;;;;;;;28.63;9.52;;;;;;;-13.62;72.91;94952.97;5067693;28;20056;-62
2022/01/21 00:32:34;;;;;;;28.10;11.48;;;;;;;-1.52;80.14;96907.34;5066298;28;20054;-59
2022/01/21 00:35:01;;;;;;;24.52;9.80;;;;;;;-1.10;79.72;96926.16;5066300;28;20055;-62
2022/01/21 00:37:28;;;;;;;26.98;9.95;;;;;;;-0.92;79.00;96938.91;5064851;28;20465;-63
2022/01/21 00:39:58;;;;;;;24.95;9.90;;;;;;;-1.08;79.00;96902.22;5066208;28;20053;-63
2022/01/21 00:45:01;;;;;;;26.42;11.30;;;;;;;-0.75;78.47;96920.91;5066024;28;20460;-64
2022/01/21 00:47:28;;;;;;;18.98;7.85;;;;;;;-1.08;78.22;96845.16;5066033;28;20060;-64
2022/01/21 00:49:56;;;;;;;16.63;6.20;;;;;;;-0.60;78.30;96920.59;5065849;28;20519;-60
2022/01/21 00:52:23;;;;;;;15.27;6.85;;;;;;;-0.62;77.80;96927.47;5064693;28;20053;-61
2022/01/21 00:54:50;;;;;;;20.70;8.20;;;;;;;-0.48;77.18;96922.81;5064949;28;20801;-60
2022/01/21 00:57:17;;;;;;;25.85;8.85;;;;;;;-0.99;77.10;96840.63;5065402;28;20052;-60
2022/01/21 00:59:43;;;;;;;25.65;8.55;;;;;;;-0.90;76.93;96833.41;5065459;28;20062;-61
2022/01/21 01:02:10;;;;;;;25.13;8.52;;;;;;;-0.44;76.64;96902.03;5065440;28;20052;-61
2022/01/21 01:04:37;;;;;;;18.25;7.70;;;;;;;-0.22;76.11;96919.25;5065512;28;20176;-59
2022/01/21 01:07:05;;;;;;;22.52;8.73;;;;;;;-0.56;76.28;96850.09;5063318;28;20067;-63
2022/01/21 01:09:32;;;;;;;24.90;8.50;;;;;;;-0.28;75.25;96878.84;5065322;28;20056;-60
2022/01/21 01:20:02;;;;;;;28.15;10.23;;;;;;;-0.18;74.51;96900.41;5086281;28;20066;-60
2022/01/21 01:22:53;;;;;;;26.05;10.15;;;;;;;-0.15;74.91;96878.03;5085451;28;20056;-61
2022/01/21 01:28:06;;;;;;;23.60;8.18;;;;;;;-0.13;73.54;96870.38;5085699;28;20059;-62
2022/01/21 01:30:35;;;;;;;17.33;7.40;;;;;;;-0.14;73.77;96855.13;5085106;28;20048;-60
2022/01/21 01:33:06;;;;;;;19.30;6.65;;;;;;;-0.21;73.95;96852.03;5084106;28;20044;-64
2022/01/21 01:35:35;;;;;;;16.52;5.90;;;;;;;-0.14;73.77;96846.97;5085345;28;20063;-64
2022/01/21 01:38:57;;;;;;;18.10;6.13;;;;;;;0.01;72.24;96873.84;5085147;28;20050;-61
2022/01/21 01:40:55;;;;;;;18.90;7.30;;;;;;;-0.29;73.33;96844.59;5084789;28;20067;-61
2022/01/21 01:51:30;;;;;;;20.38;8.80;;;;;;;0.09;72.90;96875.84;5084577;28;20044;-64
2022/01/21 01:54:16;;;;;;;17.15;7.75;;;;;;;0.15;73.54;96882.78;5084785;28;20588;-64
2022/01/21 01:56:51;;;;;;;24.70;8.95;;;;;;;0.18;73.47;96884.88;5084509;28;20043;-61
2022/01/21 01:59:18;;;;;;;23.80;9.27;;;;;;;-0.16;73.93;96822.00;5084812;28;20071;-61
2022/01/21 02:01:52;;;;;;;22.70;9.20;;;;;;;0.01;73.97;96830.31;5084514;28;20056;-64
2022/01/21 02:04:21;;;;;;;28.33;10.60;;;;;;;-2.37;73.68;96438.41;5084884;28;20055;-62
2022/01/21 02:06:48;;;;;;;31.80;11.52;;;;;;;0.26;73.99;96862.38;5084819;28;20048;-63
2022/01/21 02:09:15;;;;;;;30.50;11.38;;;;;;;0.32;72.99;96872.03;5084347;28;20048;-63
2022/01/21 02:11:43;;;;;;;29.83;11.65;;;;;;;0.59;71.90;96899.16;5084415;28;20070;-60
2022/01/21 02:14:14;;;;;;;24.85;11.20;;;;;;;0.56;71.70;96893.50;5083405;28;20040;-59
2022/01/21 02:17:11;;;;;;;24.23;9.90;;;;;;;0.49;71.96;96876.81;5082951;28;20440;-63
2022/01/21 02:22:25;;;;;;;19.88;8.00;;;;;;;0.78;70.47;96890.78;5064170;28;20923;-63
2022/01/21 02:24:56;;;;;;;21.65;8.75;;;;;;;0.82;70.39;96887.09;5063752;28;20052;-60
2022/01/21 02:27:23;;;;;;;22.90;8.23;;;;;;;0.80;70.52;96903.00;5063745;28;20048;-59
2022/01/21 02:29:59;;;;;;;24.58;8.48;;;;;;;0.64;69.91;96869.06;5064204;28;20060;-63
2022/01/21 02:32:26;;;;;;;75.70;24.52;;;;;;;0.90;70.21;96916.34;5063585;28;20048;-60
2022/01/21 02:34:53;;;;;;;64.63;23.67;;;;;;;0.48;70.84;96843.31;5063821;28;20052;-61
2022/01/21 02:37:22;;;;;;;48.50;18.67;;;;;;;0.83;71.82;96886.00;5064245;28;20071;-60
2022/01/21 02:39:50;;;;;;;62.03;20.80;;;;;;;0.91;71.20;96896.16;5063596;28;20059;-60
2022/01/21 02:42:17;;;;;;;32.33;11.15;;;;;;;0.86;72.24;96893.56;5062037;28;20060;-63
2022/01/21 02:44:44;;;;;;;22.27;9.20;;;;;;;0.49;73.02;96817.66;5063663;28;20045;-61
2022/01/21 02:47:11;;;;;;;27.80;11.65;;;;;;;0.30;72.12;96781.63;5063602;28;20059;-64
2022/01/21 02:49:37;;;;;;;28.52;12.15;;;;;;;0.93;72.45;96893.91;5062628;28;20084;-60
2022/01/21 02:52:07;;;;;;;31.20;11.73;;;;;;;0.91;72.71;96898.88;5063952;28;20435;-60
2022/01/21 02:54:34;;;;;;;24.52;11.45;;;;;;;0.68;72.97;96859.13;5062492;28;20059;-63
2022/01/21 02:57:03;;;;;;;22.25;10.23;;;;;;;0.15;77.27;96885.50;5063608;28;20048;-60
2022/01/21 02:59:31;;;;;;;29.08;11.07;;;;;;;-0.08;78.70;96873.00;5062887;28;20234;-60
2022/01/21 03:01:59;;;;;;;24.48;11.32;;;;;;;0.22;77.67;96894.06;5062068;28;20048;-63
2022/01/21 03:04:59;;;;;;;33.35;12.90;;;;;;;0.33;77.81;96895.44;5063601;28;20585;-64
2022/01/21 03:07:13;;;;;;;27.85;10.50;;;;;;;0.12;78.48;96874.41;5063220;28;20048;-61
2022/01/21 03:09:40;;;;;;;28.15;10.70;;;;;;;0.25;80.11;96881.75;5063998;28;20424;-64
2022/01/21 03:12:07;;;;;;;33.17;13.68;;;;;;;0.25;78.90;96919.88;5062224;28;20055;-63
2022/01/21 03:14:33;;;;;;;35.20;12.13;;;;;;;0.45;78.11;96882.06;5062348;28;20052;-61
2022/01/21 03:17:00;;;;;;;20.92;8.82;;;;;;;0.28;78.37;96845.72;5064442;28;20056;-60
2022/01/21 03:19:27;;;;;;;24.63;10.00;;;;;;;0.62;77.13;96884.91;5083483;28;20056;-62
2022/01/21 03:21:53;;;;;;;27.40;9.82;;;;;;;0.50;76.96;96867.50;5083248;28;20055;-63
2022/01/21 03:24:20;;;;;;;23.55;9.75;;;;;;;0.66;78.07;96894.09;5083688;28;20052;-63
2022/01/21 03:26:47;;;;;;;23.17;10.18;;;;;;;0.81;76.86;96869.16;5083525;28;20074;-64
2022/01/21 03:29:13;;;;;;;18.85;8.52;;;;;;;0.56;75.09;96823.47;5083544;28;20056;-63
2022/01/21 03:31:40;;;;;;;22.00;10.15;;;;;;;0.79;75.63;96835.94;5082380;28;20434;-63
2022/01/21 03:34:07;;;;;;;30.48;12.70;;;;;;;1.16;75.11;96881.84;5083946;28;20056;-64
2022/01/21 03:36:35;;;;;;;33.35;15.43;;;;;;;0.83;75.30;96833.41;5085295;28;20044;-64
2022/01/21 03:39:02;;;;;;;27.45;12.07;;;;;;;0.61;75.40;96771.56;5087901;28;20060;-63
2022/01/21 03:41:29;;;;;;;21.75;10.02;;;;;;;1.37;74.64;96871.19;5087080;28;20503;-61
2022/01/21 03:43:56;;;;;;;22.92;8.98;;;;;;;1.00;73.77;96801.56;5085926;28;20511;-63
2022/01/21 03:46:23;;;;;;;24.50;9.93;;;;;;;1.58;74.18;96883.91;5087468;28;20051;-61
2022/01/21 03:48:50;;;;;;;19.05;10.27;;;;;;;1.70;73.66;96879.78;5087946;28;20052;-63
2022/01/21 03:51:19;;;;;;;32.47;12.13;;;;;;;1.56;73.17;96856.13;5087318;28;20048;-63
2022/01/21 03:53:46;;;;;;;30.42;13.55;;;;;;;1.78;73.60;96906.28;5087660;28;20082;-61
2022/01/21 03:56:14;;;;;;;35.67;14.65;;;;;;;1.81;72.82;96892.00;5087085;28;20483;-61
2022/01/21 03:58:42;;;;;;;38.45;14.73;;;;;;;1.84;73.12;96886.72;5087400;28;20059;-60
2022/01/21 04:01:09;;;;;;;49.38;18.42;;;;;;;1.79;72.88;96877.88;5086846;28;20044;-61
2022/01/21 04:03:36;;;;;;;49.80;19.58;;;;;;;1.30;72.67;96800.69;5086102;28;20427;-60
2022/01/21 04:06:03;;;;;;;60.53;21.98;;;;;;;1.03;74.44;96773.66;5085484;28;20052;-60
2022/01/21 04:08:30;;;;;;;56.78;21.02;;;;;;;1.59;75.13;96865.63;5087139;28;20048;-64
2022/01/21 04:10:57;;;;;;;42.35;19.27;;;;;;;1.87;75.44;96898.91;5085015;28;20060;-61
2022/01/21 04:13:26;;;;;;;39.85;15.48;;;;;;;1.80;76.43;96898.59;5087209;28;20056;-61
2022/01/21 04:15:56;;;;;;;50.72;19.42;;;;;;;1.72;77.77;96888.47;5086502;28;20052;-63
2022/01/21 04:18:23;;;;;;;52.08;19.63;;;;;;;1.53;79.38;96886.00;5073182;28;20427;-64
2022/01/21 04:20:52;;;;;;;49.55;18.92;;;;;;;1.48;80.84;96884.22;5066619;28;20045;-64
2022/01/21 04:23:20;;;;;;;36.60;13.50;;;;;;;1.55;81.38;96884.56;5066463;28;20059;-61
2022/01/21 04:25:48;;;;;;;34.72;11.48;;;;;;;1.43;82.68;96881.63;5066966;28;20049;-60
2022/01/21 04:28:15;;;;;;;25.30;9.68;;;;;;;1.39;84.70;96872.47;5066738;28;20064;-60
2022/01/21 04:30:42;;;;;;;26.95;10.65;;;;;;;1.36;86.22;96881.28;5066448;28;20049;-64
2022/01/21 04:33:10;;;;;;;25.92;9.63;;;;;;;1.33;87.73;96875.63;5066427;28;20056;-64
2022/01/21 04:35:37;;;;;;;21.95;8.20;;;;;;;1.35;88.60;96885.13;5066036;28;20049;-64
2022/01/21 04:38:09;;;;;;;20.35;8.60;;;;;;;1.46;88.40;96891.09;5065077;28;20517;-61
2022/01/21 04:40:45;;;;;;;21.87;8.50;;;;;;;-0.50;87.84;96555.13;5066345;28;20056;-61
2022/01/21 04:48:44;;;;;;;19.80;7.50;;;;;;;1.64;89.69;96894.69;5066220;28;20153;-60
2022/01/21 04:51:26;;;;;;;17.10;8.30;;;;;;;1.12;91.89;96848.13;5065660;28;20088;-61
2022/01/21 04:53:53;;;;;;;24.33;9.60;;;;;;;1.62;91.42;96916.84;5066339;28;20439;-60
2022/01/21 04:56:20;;;;;;;24.13;9.65;;;;;;;1.31;91.16;96851.41;5064162;28;20052;-60
2022/01/21 04:58:48;;;;;;;25.10;9.73;;;;;;;1.81;90.55;96911.13;5065839;28;20052;-61
2022/01/21 05:01:15;;;;;;;21.10;9.73;;;;;;;1.69;90.60;96887.19;5065910;28;20082;-61
2022/01/21 05:03:44;;;;;;;33.63;11.18;;;;;;;1.04;91.55;96786.16;5066193;28;20060;-61
2022/01/21 05:06:11;;;;;;;34.25;11.63;;;;;;;1.87;91.80;96918.03;5063987;28;20056;-62
2022/01/21 05:08:44;;;;;;;25.13;9.85;;;;;;;1.78;93.92;96914.47;5065561;28;20468;-62
2022/01/21 05:11:13;;;;;;;;;;;;;;;1.89;92.75;96926.72;5065598;28;20187;-62
2022/01/21 05:13:52;;;;;;;35.33;13.35;;;;;;;1.91;92.50;96919.84;5064240;28;20022;-61
2022/01/21 05:16:38;;;;;;;69.93;21.02;;;;;;;1.91;92.51;96924.47;5065460;28;20053;-61
2022/01/21 05:19:13;;;;;;;44.72;16.92;;;;;;;1.91;94.20;96916.28;5084413;28;20109;-61
2022/01/21 05:21:45;;;;;;;218.65;53.47;;;;;;;1.80;94.44;96902.16;5084934;28;20054;-63
2022/01/21 05:24:12;;;;;;;96.88;30.50;;;;;;;1.85;95.10;96909.38;5086176;28;20526;-61
2022/01/21 05:26:41;;;;;;;77.00;25.00;;;;;;;1.97;94.29;96934.94;5085637;28;20048;-62
2022/01/21 05:29:10;;;;;;;112.18;32.22;;;;;;;1.43;94.84;96856.25;5085622;28;20051;-62
2022/01/21 05:31:37;;;;;;;92.88;25.75;;;;;;;1.85;95.42;96915.63;5085257;28;20044;-61
2022/01/21 05:34:04;;;;;;;73.22;19.50;;;;;;;1.90;95.41;96923.66;5085144;28;20164;-62
2022/01/21 05:36:31;;;;;;;305.02;53.03;;;;;;;1.94;96.04;96929.31;5084757;28;20071;-63
2022/01/21 05:38:59;;;;;;;74.78;24.58;;;;;;;1.75;96.82;96909.66;5083422;28;20052;-62
2022/01/21 05:41:25;;;;;;;41.17;18.30;;;;;;;1.80;98.96;96926.72;5083295;28;20066;-62
2022/01/21 05:44:01;;;;;;;86.13;32.92;;;;;;;1.83;100.00;96922.53;5085205;28;20550;-63
2022/01/21 05:48:55;;;;;;;55.70;27.67;;;;;;;1.84;100.00;96921.41;5072712;28;20586;-64
2022/01/21 05:51:22;;;;;;;53.75;25.88;;;;;;;2.01;100.00;96919.50;5064019;28;20225;-59
2022/01/21 05:53:49;;;;;;;42.22;18.20;;;;;;;2.06;100.00;96922.09;5065031;28;20052;-60
2022/01/21 05:56:16;;;;;;;24.73;13.23;;;;;;;1.85;100.00;96923.03;5064653;28;20056;-59
2022/01/21 05:58:43;;;;;;;32.45;15.68;;;;;;;1.93;100.00;96927.72;5063668;28;20075;-61
2022/01/21 06:01:09;;;;;;;26.92;13.07;;;;;;;1.47;100.00;96855.31;5062842;28;20135;-63
2022/01/21 06:03:36;;;;;;;25.67;14.10;;;;;;;1.45;100.00;96840.38;5064828;28;20052;-59
2022/01/21 06:06:03;;;;;;;33.58;15.50;;;;;;;2.00;100.00;96917.09;5064204;28;20741;-64
2022/01/21 06:08:30;;;;;;;42.95;22.58;;;;;;;2.16;100.00;96923.72;5062932;28;20499;-64
2022/01/21 06:10:57;;;;;;;35.85;15.48;;;;;;;2.19;100.00;96945.75;5062588;28;20076;-62
2022/01/21 06:13:23;;;;;;;28.23;13.73;;;;;;;2.17;100.00;96949.91;5064646;28;20843;-59
2022/01/21 06:15:50;;;;;;;25.48;11.50;;;;;;;1.75;100.00;96871.44;5064151;28;20515;-65
2022/01/21 06:18:17;;;;;;;30.20;14.13;;;;;;;2.31;100.00;96958.81;5073128;28;20063;-64
2022/01/21 06:20:44;;;;;;;29.95;15.57;;;;;;;2.12;100.00;96914.56;5082889;28;20080;-60
2022/01/21 06:23:11;;;;;;;32.85;15.73;;;;;;;2.44;100.00;96930.50;5084364;28;20052;-60
2022/01/21 06:25:39;;;;;;;35.60;17.17;;;;;;;2.41;100.00;96940.16;5084158;28;20138;-60
2022/01/21 06:28:05;;;;;;;56.42;26.10;;;;;;;2.45;100.00;96932.13;5084344;28;20047;-59
2022/01/21 06:30:32;;;;;;;54.50;25.17;;;;;;;2.48;100.00;96945.94;5083961;28;20052;-59
2022/01/21 06:32:59;;;;;;;37.13;17.08;;;;;;;1.61;100.00;96805.25;5082902;28;20060;-61
2022/01/21 06:35:26;;;;;;;80.78;36.20;;;;;;;2.62;100.00;96945.78;5083944;28;20056;-66
2022/01/21 06:37:53;;;;;;;119.85;49.85;;;;;;;2.49;100.00;96944.00;5084214;28;20497;-60
2022/01/21 06:40:20;;;;;;;65.80;30.58;;;;;;;2.33;100.00;96910.06;5083736;28;20058;-67
2022/01/21 06:42:49;;;;;;;61.13;27.08;;;;;;;2.38;100.00;96909.91;5082760;28;20552;-66
2022/01/21 06:45:16;;;;;;;54.55;26.08;;;;;;;2.52;100.00;96946.09;5082391;28;20341;-60
2022/01/21 06:47:43;;;;;;;26.42;11.95;;;;;;;0.24;99.54;96594.22;5084203;28;20048;-61
2022/01/21 06:50:10;;;;;;;32.55;13.82;;;;;;;2.19;99.05;96887.56;5082551;28;20546;-60
2022/01/21 06:52:37;;;;;;;22.63;9.40;;;;;;;2.64;98.14;96955.25;5084118;28;20542;-66
2022/01/21 06:55:05;;;;;;;16.30;7.55;;;;;;;1.86;95.27;96829.06;5068736;28;20050;-58
2022/01/21 06:57:37;;;;;;;27.27;10.82;;;;;;;2.32;94.44;96903.00;5067145;28;20040;-59
2022/01/21 07:00:07;;;;;;;22.67;8.73;;;;;;;2.70;94.62;96951.25;5067273;28;20663;-60
2022/01/21 07:02:34;;;;;;;29.13;12.25;;;;;;;2.84;94.38;96964.75;5078416;28;20782;-61
2022/01/21 07:05:02;;;;;;;22.02;9.82;;;;;;;2.77;92.52;96942.56;5067682;28;20531;-63
2022/01/21 07:07:29;;;;;;;20.85;8.05;;;;;;;2.55;92.57;96901.72;5065538;28;20055;-69
2022/01/21 07:09:56;;;;;;;20.40;9.27;;;;;;;1.98;92.20;96821.03;5078805;28;20064;-56
2022/01/21 07:12:22;;;;;;;18.40;8.27;;;;;;;2.89;92.72;96961.88;5067232;28;20045;-68
2022/01/21 07:14:49;;;;;;;19.67;8.77;;;;;;;2.89;92.86;96961.88;5075569;28;20056;-60
2022/01/21 07:17:16;;;;;;;28.95;12.75;;;;;;;3.05;92.35;96969.25;5081524;28;20051;-67
2022/01/21 07:19:43;;;;;;;69.95;34.45;;;;;;;3.03;91.40;96970.72;5081578;28;20518;-67
2022/01/21 07:22:10;;;;;;;115.22;46.53;;;;;;;3.16;91.46;96988.88;5083059;28;20048;-59
2022/01/21 07:24:37;;;;;;;49.33;24.13;;;;;;;3.25;91.44;96995.13;5082915;28;20109;-59
2022/01/21 07:27:03;;;;;;;22.27;10.38;;;;;;;3.02;93.16;96990.97;5081876;28;20113;-61
2022/01/21 07:29:31;;;;;;;36.70;13.20;;;;;;;2.96;95.36;97000.47;5082550;28;20116;-67
2022/01/21 07:31:58;;;;;;;39.08;15.40;;;;;;;2.49;95.51;96957.69;5082891;28;20044;-67
2022/01/21 07:34:26;;;;;;;36.42;15.48;;;;;;;2.94;96.01;96978.13;5082413;28;20105;-58
2022/01/21 07:36:54;;;;;;;37.38;17.05;;;;;;;3.13;96.22;97005.91;5082666;28;20048;-66
2022/01/21 07:39:22;;;;;;;37.72;17.77;;;;;;;3.01;95.75;97009.34;5083025;28;20364;-59
2022/01/21 07:41:49;;;;;;;51.03;18.73;;;;;;;2.70;99.56;97013.34;5081726;28;20044;-67
2022/01/21 07:44:16;;;;;;;52.78;18.70;;;;;;;2.60;100.00;97016.38;5083563;28;20063;-59
2022/01/21 07:46:45;;;;;;;58.30;22.10;;;;;;;0.22;100.00;96604.59;5082794;28;20052;-67
2022/01/21 07:49:12;;;;;;;45.58;18.27;;;;;;;2.61;100.00;96961.38;5082747;28;20052;-59
2022/01/21 07:51:39;;;;;;;87.32;32.72;;;;;;;3.07;98.66;97012.69;5062045;28;20048;-59
2022/01/21 07:54:06;;;;;;;70.82;30.35;;;;;;;3.08;98.37;97000.63;5062934;28;20167;-59
2022/01/21 07:56:34;;;;;;;72.18;28.95;;;;;;;2.91;97.04;96981.47;5061976;28;20131;-65
2022/01/21 07:59:04;;;;;;;37.58;16.42;;;;;;;3.00;98.47;97026.06;5062760;28;20541;-58
2022/01/21 08:01:31;;;;;;;30.02;15.70;;;;;;;2.51;99.81;96966.38;5062495;28;20061;-60
2022/01/21 08:03:59;;;;;;;48.83;22.10;;;;;;;2.89;99.05;97016.56;5062268;28;20051;-69
2022/01/21 08:06:26;;;;;;;49.40;20.50;;;;;;;2.92;99.73;97026.88;5062054;28;20056;-68
2022/01/21 08:08:54;;;;;;;29.65;14.90;;;;;;;3.03;98.83;97022.69;5061239;28;20076;-59
2022/01/21 08:11:21;;;;;;;37.13;17.70;;;;;;;2.99;98.57;97030.72;5048782;28;20052;-67
2022/01/21 08:13:48;;;;;;;30.20;15.85;;;;;;;3.03;97.16;97050.81;5061076;28;20056;-69
2022/01/21 08:16:15;;;;;;;41.63;18.80;;;;;;;2.62;95.95;97004.03;5060803;28;20058;-69
2022/01/21 08:18:43;;;;;;;33.58;13.63;;;;;;;3.13;91.01;97049.69;5071073;28;20426;-63
2022/01/21 08:21:10;;;;;;;17.13;6.70;;;;;;;2.54;89.29;96982.94;5083400;28;20052;-58
2022/01/21 08:23:37;;;;;;;14.98;8.02;;;;;;;2.91;90.58;97038.91;5086310;28;21187;-57
2022/01/21 08:26:04;;;;;;;18.77;7.78;;;;;;;3.16;90.50;97060.03;5086024;28;20060;-58
2022/01/21 08:28:30;;;;;;;21.63;7.93;;;;;;;3.03;90.52;97028.16;5084356;28;20083;-61
2022/01/21 08:30:57;;;;;;;6.45;3.13;;;;;;;3.27;88.92;97061.31;5084749;28;20522;-63
2022/01/21 08:33:24;;;;;;;7.07;3.38;;;;;;;3.40;87.65;97059.53;5086320;28;20052;-61
2022/01/21 08:35:51;;;;;;;11.27;4.40;;;;;;;3.15;86.94;97047.47;5085951;28;20120;-66
2022/01/21 08:38:20;;;;;;;11.93;4.25;;;;;;;3.34;85.43;97089.00;5085981;28;20052;-63
2022/01/21 08:40:48;;;;;;;11.90;4.40;;;;;;;3.20;85.67;97047.28;5085748;28;20449;-63
2022/01/21 08:43:15;;;;;;;5.72;2.97;;;;;;;3.33;84.68;97081.91;5085952;28;20087;-60
2022/01/21 08:45:42;;;;;;;10.88;6.00;;;;;;;2.70;85.21;96981.31;5085045;28;20055;-57
2022/01/21 08:48:10;;;;;;;13.23;6.20;;;;;;;3.19;84.38;97064.84;5086020;28;20474;-66
2022/01/21 08:50:37;;;;;;;41.30;17.10;;;;;;;3.42;82.60;97090.09;5073399;28;20613;-57
2022/01/21 08:53:36;;;;;;;23.73;8.40;;;;;;;3.43;83.95;97092.50;5065367;28;20053;-62
2022/01/21 08:55:55;;;;;;;15.10;5.18;;;;;;;3.58;83.12;97083.81;5077099;28;20056;-62
2022/01/21 08:58:21;;;;;;;13.15;5.25;;;;;;;3.62;83.83;97062.84;5083655;28;20597;-62
2022/01/21 09:00:48;;;;;;;14.85;6.00;;;;;;;3.15;81.15;96992.72;5085403;28;20132;-59
2022/01/21 09:03:15;;;;;;;11.95;4.25;;;;;;;3.52;81.96;97041.31;5066886;28;20044;-73
2022/01/21 09:05:48;;;;;;;4.90;3.17;;;;;;;3.70;81.38;97107.81;5063251;28;20062;-59
2022/01/21 09:08:15;;;;;;;12.93;4.43;;;;;;;3.67;81.31;97100.22;5068823;28;20803;-70
2022/01/21 09:10:42;;;;;;;21.08;7.22;;;;;;;3.62;80.81;97079.28;5079177;28;20082;-66
2022/01/21 09:13:09;;;;;;;10.45;4.68;;;;;;;3.81;80.50;97093.44;5065273;28;20052;-68
2022/01/21 09:15:37;;;;;;;7.22;3.33;;;;;;;3.67;76.40;97103.78;5093576;28;20558;-69
2022/01/21 09:18:05;;;;;;;7.47;3.45;;;;;;;3.77;75.96;97108.09;5084097;28;20134;-67
2022/01/21 09:20:33;;;;;;;8.55;4.25;;;;;;;3.76;72.47;97101.03;5066564;28;20064;-58
2022/01/21 09:23:00;;;;;;;17.38;7.70;;;;;;;0.73;74.62;96627.34;5065155;28;20143;-61
2022/01/21 09:25:27;;;;;;;14.95;6.20;;;;;;;2.91;77.07;96968.63;5064344;28;20056;-58
2022/01/21 09:27:53;;;;;;;5.75;3.42;;;;;;;3.73;76.69;97091.50;5078935;28;20075;-65
2022/01/21 09:30:20;;;;;;;5.55;2.63;;;;;;;3.14;75.94;97015.75;5064367;28;20348;-70
2022/01/21 09:32:47;;;;;;;8.43;4.75;;;;;;;3.69;73.91;97063.19;5065459;28;20057;-60
2022/01/21 09:35:14;;;;;;;7.97;3.33;;;;;;;3.94;69.50;97086.16;5063283;28;20056;-64
2022/01/21 09:37:44;;;;;;;4.57;2.15;;;;;;;4.04;65.11;97105.00;5058748;28;20055;-67
2022/01/21 09:40:32;;;;;;;13.85;6.60;;;;;;;4.07;70.15;97091.44;5032837;28;20049;-59
2022/01/21 09:42:59;;;;;;;11.57;5.80;;;;;;;4.09;67.94;97089.19;5014151;28;20044;-71
2022/01/21 09:45:28;;;;;;;4.65;3.38;;;;;;;4.15;67.92;97096.09;5015852;28;20134;-71
2022/01/21 09:47:57;;;;;;;7.43;3.97;;;;;;;3.73;65.38;97030.47;5021150;28;20155;-71
2022/01/21 09:50:24;;;;;;;41.40;19.77;;;;;;;4.29;64.29;97082.97;5036276;28;20172;-60
2022/01/21 09:52:53;;;;;;;8.23;4.70;;;;;;;1.66;66.10;96655.00;5074527;28;20054;-71
2022/01/21 09:55:22;;;;;;;5.75;4.07;;;;;;;4.72;60.78;97073.72;5071071;28;20047;-61
2022/01/21 09:57:51;;;;;;;5.10;3.17;;;;;;;4.88;58.46;97082.97;5080678;28;20401;-60
2022/01/21 10:00:21;;;;;;;11.80;4.88;;;;;;;4.76;57.39;97071.94;5070597;28;20431;-65
2022/01/21 10:02:50;;;;;;;25.40;8.18;;;;;;;4.41;60.45;97058.38;5068028;28;20462;-67
2022/01/21 10:05:18;;;;;;;10.07;5.00;;;;;;;4.66;60.83;97070.38;5068358;28;20074;-61
2022/01/21 10:07:46;;;;;;;18.95;7.03;;;;;;;4.03;59.04;96991.81;5083291;28;20048;-63
2022/01/21 10:10:14;;;;;;;20.83;7.90;;;;;;;4.90;57.80;97058.75;5083157;28;20143;-61
2022/01/21 10:12:49;;;;;;;20.27;7.13;;;;;;;5.14;56.19;97056.94;5083937;28;20511;-63
2022/01/21 10:15:17;;;;;;;8.68;3.58;;;;;;;5.12;56.67;97045.50;5084309;28;20048;-63
2022/01/21 10:18:15;;;;;;;10.20;4.00;;;;;;;4.91;55.04;97035.66;5083587;28;20040;-62
2022/01/21 10:21:07;;;;;;;20.48;7.60;;;;;;;4.91;55.22;97038.41;5084098;28;20420;-61
2022/01/21 10:23:36;;;;;;;9.27;4.35;;;;;;;4.74;55.90;97016.59;5083081;28;20056;-63
2022/01/21 10:26:09;;;;;;;5.47;3.33;;;;;;;4.88;54.39;97044.56;5071440;28;20117;-62
2022/01/21 10:28:37;;;;;;;5.13;3.22;;;;;;;4.80;52.45;97027.03;5064694;28;20427;-61
2022/01/21 10:31:04;;;;;;;5.95;2.88;;;;;;;5.09;51.52;97056.38;5063858;28;20087;-63
2022/01/21 10:33:31;;;;;;;7.47;3.45;;;;;;;5.31;52.37;97064.25;5063610;28;20060;-59
2022/01/21 10:36:15;;;;;;;7.03;4.13;;;;;;;5.36;50.80;97062.09;5063387;28;20051;-63
2022/01/21 10:38:46;;;;;;;10.85;4.80;;;;;;;5.36;52.55;97045.63;5062190;28;20075;-60
2022/01/21 10:41:15;;;;;;;7.97;3.55;;;;;;;5.42;50.18;97038.00;5062266;28;20052;-61
2022/01/21 10:43:44;;;;;;;9.48;4.30;;;;;;;5.38;52.60;97045.28;5061062;28;20053;-61
2022/01/21 10:46:17;;;;;;;9.20;4.65;;;;;;;5.34;51.42;97036.91;5059824;28;20054;-62
2022/01/21 10:49:16;;;;;;;6.15;3.60;;;;;;;5.29;49.88;97022.59;5069774;28;20078;-63
2022/01/21 10:51:50;;;;;;;17.80;5.25;;;;;;;5.42;50.37;97027.00;5060343;28;20067;-62
2022/01/21 10:54:22;;;;;;;7.07;3.22;;;;;;;5.51;50.05;97022.22;5061711;28;20052;-62
2022/01/21 10:57:10;;;;;;;60.90;23.53;;;;;;;5.66;50.62;97016.06;5067475;28;20059;-61
2022/01/21 11:00:06;;;;;;;6.40;4.13;;;;;;;5.74;49.64;97017.94;5083818;28;20300;-63
2022/01/21 11:02:48;;;;;;;6.88;3.55;;;;;;;5.78;50.36;97021.63;5083411;28;20063;-60
2022/01/21 11:05:23;;;;;;;6.57;3.67;;;;;;;5.73;49.98;97027.31;5081296;28;20109;-66
2022/01/21 11:07:52;;;;;;;6.25;3.50;;;;;;;6.08;48.45;97018.41;5070921;28;20151;-61
2022/01/21 11:10:39;;;;;;;3.95;1.45;;;;;;;5.33;45.12;97020.75;5081473;28;20433;-57
2022/01/21 11:13:12;;;;;;;3.60;1.50;;;;;;;5.40;44.69;97012.81;5072492;28;20485;-62
2022/01/21 11:15:43;;;;;;;0.98;0.80;;;;;;;5.26;44.93;97020.53;5082795;28;20087;-61
2022/01/21 11:18:14;;;;;;;1.48;0.60;;;;;;;5.29;42.63;97011.59;5082912;28;20054;-62
2022/01/21 11:20:42;;;;;;;2.78;1.10;;;;;;;5.35;42.61;97026.72;5065999;28;20084;-62
2022/01/21 11:23:10;;;;;;;1.15;0.90;;;;;;;5.50;43.63;97026.13;5079480;28;20540;-63
2022/01/21 11:25:43;;;;;;;1.85;0.70;;;;;;;5.43;42.00;96990.16;5077699;28;20044;-58
2022/01/21 11:28:11;;;;;;;25.50;7.90;;;;;;;5.88;43.92;97034.97;5075608;28;20039;-66
2022/01/21 11:30:38;;;;;;;5.78;1.58;;;;;;;5.66;41.07;96989.41;5074024;28;20059;-63
2022/01/21 11:33:05;;;;;;;8.20;3.00;;;;;;;4.97;44.56;96949.25;5064319;28;20049;-57
2022/01/21 11:35:33;;;;;;;6.88;2.25;;;;;;;5.75;41.88;97030.53;5061487;28;20053;-58
2022/01/21 11:38:05;;;;;;;7.10;2.58;;;;;;;5.82;41.43;96997.81;5062399;28;20040;-61
2022/01/21 11:40:36;;;;;;;3.67;1.45;;;;;;;4.17;40.67;96833.41;5082834;28;20052;-62
2022/01/21 11:43:04;;;;;;;1.98;1.20;;;;;;;4.28;40.91;96927.03;5082992;28;20530;-61
2022/01/21 11:51:21;;;;;;;1.30;0.60;;;;;;;4.73;40.50;97009.50;5083224;28;20048;-60
2022/01/21 11:53:53;;;;;;;10.40;2.50;;;;;;;4.75;41.65;97009.94;5075913;28;20127;-59
2022/01/21 11:56:43;;;;;;;2.17;1.13;;;;;;;4.68;41.20;96974.03;5072943;28;20055;-61
2022/01/21 12:02:31;;;;;;;2.63;0.70;;;;;;;5.46;40.95;96992.22;5042679;28;20056;-61
2022/01/21 12:05:00;;;;;;;3.83;1.33;;;;;;;5.32;39.92;96984.28;5066943;28;20056;-63
2022/01/21 12:07:33;;;;;;;10.90;3.72;;;;;;;5.76;42.13;96977.19;5079525;28;20048;-67
2022/01/21 12:10:03;;;;;;;19.95;5.55;;;;;;;5.87;42.23;96956.38;5065803;28;20061;-66
2022/01/21 12:12:51;;;;;;;26.85;9.98;;;;;;;6.29;42.10;96960.53;5066578;28;20056;-60
2022/01/21 12:20:48;;;;;;;14.57;5.55;;;;;;;6.56;39.82;96959.03;5079155;28;20048;-64
2022/01/21 12:23:16;;;;;;;16.08;6.82;;;;;;;6.63;42.15;96961.97;5086701;28;20132;-62
2022/01/21 12:26:08;;;;;;;15.77;6.10;;;;;;;6.58;41.17;96945.69;5085241;28;20078;-62
2022/01/21 12:28:59;;;;;;;26.50;9.60;;;;;;;6.45;41.47;96972.41;5083282;28;20098;-62
2022/01/21 12:31:43;;;;;;;11.95;5.35;;;;;;;6.23;40.42;96964.63;5075652;28;20048;-67
2022/01/21 12:34:15;;;;;;;8.70;3.00;;;;;;;5.71;37.25;96958.16;5085201;28;20079;-66
2022/01/21 12:36:51;;;;;;;6.50;3.05;;;;;;;5.19;38.93;96954.34;5078277;28;20053;-64
2022/01/21 12:39:43;;;;;;;3.55;1.80;;;;;;;5.30;39.87;96969.28;5074859;28;20067;-68